Portada
METAR-TAF:

METAR-TAF

Aeropuertos :

Medicine Lodge Airport

Medicine Lodge, Kansas, Estados Unidos

latitud: 37-17-02N, longitud: 098-33-10W, altitud: 469 m

Observación

El informe se hizo hace 19 minutos, a las 06:56 UTC
Viento 7 kt del sur
Temperatura 26°C
Humedad 74%
Presión 1012 hPa

METAR: KP28 070656Z AUTO 17007KT 26/21 A2987 RMK AO1 SLP092 T02560206

Hora: 02:15 (07:15 UTC)


TAF: falta

Observaciones y pronósticos meteorológicos de más de 4000 aeropuertos (mensajes METAR y TAF).

Los puntos amarillos y rojos representan las estaciones disponibles.

Ponga el ratón en el punto deseado para ver el nombre de la estación.

Haga clic para ver las observaciones y los pronósticos meteorológicos.

Para cambiar el mapa : haga clic en los botones verdes con una cruz de color negro para hacer un zoom, en el botón verde con un guión para alejar o en las flechas verdes para mapas adyacentes.


METAR-TAF: